Igaliku Heliport


Codes: qfx/QFX
Name: Igaliku Heliport
City: Igaliku
Country: Greenland
Elevation: 0 ft.

Photos at Igaliku Heliport


   Photos courtesy of SpottingLog. You can add your own sightings and photos by signing up for a free trial today.



No photos found.

Weather at Igaliku Heliport


Time (UTC)DescriptionTempratureWindCloud coverageVisibilityPressureHumidity
15-Apr-2024 18:00Broken Clouds6°C7 mph, NE81%75m1013hPa72%
15-Apr-2024 21:00Snow4°C4 mph, E92%478m1013hPa85%
16-Apr-2024 00:00Snow1°C7 mph, E100%2368m1012hPa92%
16-Apr-2024 03:00Snow0°C4 mph, E100%160m1014hPa98%
16-Apr-2024 06:00Snow0°C2 mph, E100%129m1016hPa99%
16-Apr-2024 09:00Snow1°C2 mph, SE100%84m1018hPa98%
16-Apr-2024 12:00Snow1°C4 mph, SW100%50m1021hPa100%
16-Apr-2024 15:00Light Snow1°C2 mph, W100%44m1022hPa99%
16-Apr-2024 18:00Overcast Clouds1°C2 mph, NE100%3892m1020hPa97%
16-Apr-2024 21:00Overcast Clouds-0°C2 mph, NE85%5407m1020hPa94%
17-Apr-2024 00:00Broken Clouds-5°C7 mph, E79%10000m1018hPa84%
17-Apr-2024 03:00Overcast Clouds-2°C2 mph, E100%10000m1016hPa79%
17-Apr-2024 06:00Overcast Clouds-3°C2 mph, E100%10000m1012hPa79%
17-Apr-2024 09:00Overcast Clouds-0°C2 mph, E100%10000m1011hPa81%
17-Apr-2024 12:00Light Snow1°C2 mph, NW100%7597m1011hPa93%
17-Apr-2024 15:00Light Snow1°C0 mph, W100%37m1012hPa100%
17-Apr-2024 18:00Light Snow2°C2 mph, SE100%28m1013hPa100%
17-Apr-2024 21:00Light Snow2°C0 mph, SE100%45m1014hPa99%
18-Apr-2024 00:00Light Snow1°C0 mph, W100%59m1015hPa99%
18-Apr-2024 03:00Overcast Clouds1°C2 mph, SW100%61m1015hPa99%
18-Apr-2024 06:00Overcast Clouds1°C0 mph, W100%4070m1015hPa96%
18-Apr-2024 09:00Overcast Clouds0°C0 mph, N100%8083m1016hPa93%
18-Apr-2024 12:00Overcast Clouds1°C2 mph, W100%4098m1017hPa97%
18-Apr-2024 15:00Overcast Clouds1°C2 mph, W100%127m1017hPa100%
18-Apr-2024 18:00Overcast Clouds1°C2 mph, W100%81m1017hPa100%
18-Apr-2024 21:00Overcast Clouds1°C2 mph, W100%641m1017hPa98%
19-Apr-2024 00:00Overcast Clouds-0°C4 mph, W100%3173m1016hPa95%
19-Apr-2024 03:00Light Snow-1°C4 mph, W100%325m1016hPa97%
19-Apr-2024 06:00Light Snow-2°C4 mph, SW100%501m1015hPa97%
19-Apr-2024 09:00Light Snow-3°C2 mph, W99%1155m1015hPa97%
19-Apr-2024 12:00Overcast Clouds-2°C2 mph, W96%5960m1014hPa91%
19-Apr-2024 15:00Overcast Clouds-1°C4 mph, SW86%10000m1013hPa89%
19-Apr-2024 18:00Overcast Clouds-0°C4 mph, SW91%10000m1013hPa85%
19-Apr-2024 21:00Broken Clouds-1°C2 mph, SW77%10000m1013hPa86%
20-Apr-2024 00:00Broken Clouds-6°C4 mph, NE60%10000m1015hPa93%
20-Apr-2024 03:00Few Clouds-8°C7 mph, NE18%10000m1016hPa82%
20-Apr-2024 06:00Few Clouds-9°C7 mph, NE14%10000m1016hPa69%
20-Apr-2024 09:00Broken Clouds-8°C7 mph, NE73%10000m1015hPa64%
20-Apr-2024 12:00Broken Clouds-1°C0 mph, E63%10000m1014hPa52%
20-Apr-2024 15:00Broken Clouds1°C2 mph, SE52%10000m1015hPa67%